Time;durP1;ratioP1;P1;durP2;ratioP2;P2;SDS_P1;SDS_P2;PMS_P1;PMS_P2;Temp;Humidity;BMP_temperature;BMP_pressure;BME280_temperature;BME280_humidity;BME280_pressure;Samples;Min_cycle;Max_cycle;Signal;HPM_P1;HPM_P2
2023/09/17 00:00:22;;;;;;;5.95;4.75;;;18.10;1.00;;;;;;5039584;28;20387;-82
2023/09/17 00:02:47;;;;;;;5.63;5.03;;;17.70;1.00;;;;;;5027373;28;20389;-82
2023/09/17 00:05:13;;;;;;;4.90;4.50;;;17.70;1.00;;;;;;5032331;28;20416;-82
2023/09/17 00:07:39;;;;;;;4.80;4.20;;;17.70;1.00;;;;;;5043880;28;20532;-83
2023/09/17 00:10:06;;;;;;;5.63;5.07;;;17.80;1.00;;;;;;5045082;28;20410;-83
2023/09/17 00:12:36;;;;;;;5.25;4.75;;;17.60;1.00;;;;;;5028996;28;20441;-82
2023/09/17 00:15:02;;;;;;;4.88;4.35;;;17.60;1.00;;;;;;5033952;28;20474;-82
2023/09/17 00:17:28;;;;;;;4.82;4.32;;;17.60;1.00;;;;;;5043810;28;20434;-82
2023/09/17 00:19:53;;;;;;;4.53;4.13;;;17.60;1.00;;;;;;5051777;28;20405;-82
2023/09/17 00:22:19;;;;;;;5.18;4.68;;;17.50;1.00;;;;;;5042382;28;20386;-83
2023/09/17 00:24:45;;;;;;;5.00;4.50;;;17.50;1.00;;;;;;5045128;28;20422;-82
2023/09/17 00:27:10;;;;;;;6.40;4.80;;;16.90;1.00;;;;;;5048171;28;20414;-82
2023/09/17 00:29:36;;;;;;;4.43;4.13;;;18.20;1.00;;;;;;5044467;28;20492;-82
2023/09/17 00:32:02;;;;;;;5.53;4.60;;;16.70;1.00;;;;;;5046914;28;20486;-82
2023/09/17 00:34:28;;;;;;;4.50;4.20;;;17.30;1.00;;;;;;5046680;28;20460;-82
2023/09/17 00:36:53;;;;;;;5.18;4.70;;;17.30;1.00;;;;;;5044457;28;20379;-82
2023/09/17 00:39:19;;;;;;;5.73;5.07;;;17.00;1.00;;;;;;5027990;28;20411;-82
2023/09/17 00:41:44;;;;;;;5.10;4.70;;;17.40;1.00;;;;;;5046133;28;20390;-82
2023/09/17 00:44:11;;;;;;;4.43;4.03;;;17.30;1.00;;;;;;5043427;28;20390;-82
2023/09/17 00:46:37;;;;;;;4.65;4.25;;;17.30;1.00;;;;;;5046594;28;20536;-82
2023/09/17 00:49:04;;;;;;;4.72;4.25;;;17.30;1.00;;;;;;5034797;28;20401;-82
2023/09/17 00:51:30;;;;;;;4.78;4.35;;;17.30;1.00;;;;;;5044103;28;20406;-82
2023/09/17 00:53:58;;;;;;;4.95;4.45;;;17.30;1.00;;;;;;5039897;28;20785;-82
2023/09/17 00:56:26;;;;;;;4.78;4.38;;;17.30;1.00;;;;;;5027393;28;20393;-82
2023/09/17 00:58:52;;;;;;;4.80;4.30;;;17.40;1.00;;;;;;5039275;28;20431;-82
2023/09/17 01:01:20;;;;;;;4.40;3.92;;;17.20;1.00;;;;;;5038784;28;20386;-83
2023/09/17 01:03:46;;;;;;;4.20;3.80;;;17.20;1.00;;;;;;5033036;28;20409;-82
2023/09/17 01:06:12;;;;;;;4.32;3.92;;;17.10;1.00;;;;;;5029122;28;20397;-83
2023/09/17 01:08:41;;;;;;;4.63;4.10;;;17.00;1.00;;;;;;5026435;28;20456;-82
2023/09/17 01:11:09;;;;;;;4.35;3.65;;;17.10;1.00;;;;;;5041040;28;20408;-82
2023/09/17 01:13:40;;;;;;;5.00;3.90;;;16.80;1.00;;;;;;5043929;28;20394;-82
2023/09/17 01:16:06;;;;;;;4.30;3.90;;;17.30;1.00;;;;;;5041334;28;20406;-82
2023/09/17 01:18:33;;;;;;;4.90;3.90;;;17.10;1.00;;;;;;5042256;28;20387;-81
2023/09/17 01:21:23;;;;;;;5.32;4.07;;;17.30;1.00;;;;;;5049535;28;20402;-82
2023/09/17 01:24:00;;;;;;;4.60;4.20;;;17.20;1.00;;;;;;4994490;28;20416;-82
2023/09/17 01:26:29;;;;;;;4.80;4.20;;;17.20;1.00;;;;;;5034156;28;20407;-83
2023/09/17 01:28:56;;;;;;;4.15;3.85;;;17.20;1.00;;;;;;5044744;28;20482;-82
2023/09/17 01:31:23;;;;;;;4.70;4.20;;;16.80;1.00;;;;;;5039435;28;20411;-82
2023/09/17 01:33:49;;;;;;;4.80;3.95;;;17.10;1.00;;;;;;5046256;28;20426;-82
2023/09/17 01:36:20;;;;;;;3.85;3.55;;;17.30;1.00;;;;;;5037144;28;20394;-83
2023/09/17 01:38:52;;;;;;;5.57;3.83;;;17.40;1.00;;;;;;5036788;28;20499;-82
2023/09/17 01:41:18;;;;;;;4.33;3.93;;;17.40;1.00;;;;;;5026849;28;20403;-82
2023/09/17 01:43:45;;;;;;;4.15;3.70;;;17.40;1.00;;;;;;5032637;28;20433;-83
2023/09/17 01:46:11;;;;;;;4.55;4.00;;;17.20;1.00;;;;;;5041515;28;20426;-81
2023/09/17 01:48:38;;;;;;;4.28;3.85;;;17.30;1.00;;;;;;5045815;28;20394;-83
2023/09/17 01:51:05;;;;;;;4.60;4.18;;;17.30;1.00;;;;;;5046047;28;20407;-82
2023/09/17 01:53:31;;;;;;;3.92;3.60;;;17.40;1.00;;;;;;5042044;28;20413;-81
2023/09/17 01:55:57;;;;;;;4.30;3.90;;;17.40;1.00;;;;;;5046065;28;20504;-82
2023/09/17 01:58:23;;;;;;;4.20;3.90;;;17.30;1.00;;;;;;5046951;28;20415;-83
2023/09/17 02:00:52;;;;;;;4.20;3.80;;;17.30;1.00;;;;;;5040185;28;20498;-83
2023/09/17 02:03:18;;;;;;;3.70;3.40;;;16.80;1.00;;;;;;5043918;28;20421;-82
2023/09/17 02:05:44;;;;;;;4.80;4.30;;;15.90;1.00;;;;;;5046912;28;20399;-82
2023/09/17 02:08:09;;;;;;;4.30;3.90;;;17.20;1.00;;;;;;5038571;28;20435;-82
2023/09/17 02:10:35;;;;;;;4.38;3.40;;;17.30;1.00;;;;;;5042946;28;20492;-83
2023/09/17 02:13:01;;;;;;;4.30;3.65;;;17.30;1.00;;;;;;5045271;28;20397;-82
2023/09/17 02:15:27;;;;;;;4.30;3.90;;;17.30;1.00;;;;;;5029492;28;20463;-83
2023/09/17 02:17:52;;;;;;;4.20;3.40;;;17.30;1.00;;;;;;5042889;28;20379;-82
2023/09/17 02:20:18;;;;;;;4.10;3.80;;;17.30;1.00;;;;;;5047031;28;20406;-83
2023/09/17 02:22:44;;;;;;;4.35;3.65;;;17.30;1.00;;;;;;5048712;28;20406;-82
2023/09/17 02:25:10;;;;;;;4.40;3.63;;;17.20;1.00;;;;;;5048356;28;20735;-82
2023/09/17 02:27:38;;;;;;;3.95;3.55;;;17.20;1.00;;;;;;5045547;28;20382;-82
2023/09/17 02:30:04;;;;;;;3.90;3.60;;;17.20;1.00;;;;;;5041570;28;20402;-82
2023/09/17 02:32:30;;;;;;;3.80;3.40;;;17.30;1.00;;;;;;5045400;28;20802;-83
2023/09/17 02:34:56;;;;;;;4.23;3.83;;;17.20;1.00;;;;;;5044643;28;20478;-83
2023/09/17 02:37:22;;;;;;;4.10;3.53;;;16.90;1.00;;;;;;5040356;28;20827;-82
2023/09/17 02:39:48;;;;;;;3.53;3.22;;;17.30;1.00;;;;;;5044888;28;20414;-82
2023/09/17 02:42:14;;;;;;;4.00;3.60;;;17.20;1.00;;;;;;5047783;28;20398;-82
2023/09/17 02:44:40;;;;;;;4.65;3.65;;;17.20;1.00;;;;;;5046702;28;20473;-82
2023/09/17 02:47:05;;;;;;;4.10;3.80;;;17.20;1.00;;;;;;5030510;28;20415;-82
2023/09/17 02:49:31;;;;;;;4.70;3.80;;;16.90;1.00;;;;;;5044067;28;20423;-82
2023/09/17 02:51:57;;;;;;;4.43;4.03;;;17.30;1.00;;;;;;5046396;28;20414;-82
2023/09/17 02:54:23;;;;;;;4.07;3.78;;;17.20;1.00;;;;;;5046186;28;20413;-82
2023/09/17 02:56:49;;;;;;;4.35;3.95;;;17.10;1.00;;;;;;5036302;28;20416;-82
2023/09/17 02:59:15;;;;;;;4.18;3.78;;;16.60;1.00;;;;;;5033897;28;20941;-83
2023/09/17 03:01:41;;;;;;;4.10;3.70;;;17.10;1.00;;;;;;5044886;28;20467;-82
2023/09/17 03:04:07;;;;;;;4.60;4.20;;;16.90;1.00;;;;;;5047316;28;20386;-82
2023/09/17 03:06:36;;;;;;;4.30;3.90;;;16.90;1.00;;;;;;5046157;28;20398;-82
2023/09/17 03:09:04;;;;;;;4.13;3.72;;;16.90;1.00;;;;;;5039015;28;20400;-82
2023/09/17 03:11:30;;;;;;;4.30;3.90;;;16.90;1.00;;;;;;5044588;28;20407;-82
2023/09/17 03:13:55;;;;;;;4.50;3.50;;;16.90;1.00;;;;;;5040030;28;20503;-82
2023/09/17 03:16:21;;;;;;;4.88;4.22;;;16.80;1.00;;;;;;5034212;28;20412;-82
2023/09/17 03:18:46;;;;;;;4.57;4.15;;;16.80;1.00;;;;;;5029133;28;20395;-83
2023/09/17 03:21:12;;;;;;;5.07;3.60;;;16.80;1.00;;;;;;5033968;28;20405;-83
2023/09/17 03:23:38;;;;;;;5.32;3.70;;;16.80;1.00;;;;;;5047745;28;20410;-83
2023/09/17 03:26:05;;;;;;;4.85;4.03;;;16.90;1.00;;;;;;5041371;28;20396;-82
2023/09/17 03:28:33;;;;;;;6.43;3.95;;;16.80;1.00;;;;;;5046836;28;20786;-82
2023/09/17 03:31:00;;;;;;;5.07;3.90;;;16.70;1.00;;;;;;5037919;28;20411;-82
2023/09/17 03:33:27;;;;;;;4.55;3.88;;;16.50;1.00;;;;;;5045021;28;20395;-84
2023/09/17 03:35:52;;;;;;;4.70;3.70;;;16.80;1.00;;;;;;5040383;28;20402;-83
2023/09/17 03:38:18;;;;;;;4.53;3.72;;;16.80;1.00;;;;;;5036958;28;20393;-83
2023/09/17 03:40:44;;;;;;;4.60;3.70;;;17.00;1.00;;;;;;5028069;28;20409;-83
2023/09/17 03:43:10;;;;;;;4.10;3.70;;;16.70;1.00;;;;;;5027715;28;20385;-84
2023/09/17 03:45:35;;;;;;;3.83;3.53;;;16.70;1.00;;;;;;5033625;28;20432;-83
2023/09/17 03:48:01;;;;;;;4.45;3.65;;;17.80;1.00;;;;;;5041529;28;20434;-84
2023/09/17 03:50:30;;;;;;;3.97;3.58;;;16.50;1.00;;;;;;5040429;28;20417;-83
2023/09/17 03:52:58;;;;;;;4.20;3.67;;;16.60;1.00;;;;;;5047371;28;20484;-83
2023/09/17 03:55:24;;;;;;;4.28;3.97;;;16.50;1.00;;;;;;5045058;28;20782;-84
2023/09/17 03:57:50;;;;;;;3.50;3.20;;;16.60;1.00;;;;;;5032975;28;20397;-83
2023/09/17 04:00:17;;;;;;;3.50;3.20;;;16.60;1.00;;;;;;5026416;28;20405;-83
2023/09/17 04:02:43;;;;;;;5.07;3.90;;;16.70;1.00;;;;;;5038731;28;20402;-83
2023/09/17 04:05:11;;;;;;;3.75;3.40;;;16.70;1.00;;;;;;5042732;28;20399;-83
2023/09/17 04:07:46;;;;;;;3.80;3.50;;;16.70;1.00;;;;;;5045712;28;20395;-83
2023/09/17 04:10:14;;;;;;;4.38;3.75;;;16.80;1.00;;;;;;5031587;28;20409;-83
2023/09/17 04:12:41;;;;;;;4.18;3.88;;;16.80;1.00;;;;;;5039252;28;20391;-83
2023/09/17 04:15:13;;;;;;;3.75;3.35;;;16.70;1.00;;;;;;5048565;28;20407;-82
2023/09/17 04:17:39;;;;;;;3.95;3.60;;;16.70;1.00;;;;;;5042131;28;20474;-84
2023/09/17 04:20:14;;;;;;;3.80;3.30;;;16.60;1.00;;;;;;5051603;28;20389;-84
2023/09/17 04:22:41;;;;;;;5.07;4.03;;;16.60;1.00;;;;;;5043470;28;20491;-83
2023/09/17 04:25:09;;;;;;;4.25;3.45;;;16.60;1.00;;;;;;5043097;28;20449;-84
2023/09/17 04:27:34;;;;;;;4.07;3.63;;;16.60;1.00;;;;;;5048581;28;20387;-84
2023/09/17 04:30:00;;;;;;;5.85;3.72;;;16.60;1.00;;;;;;5045578;28;20415;-83
2023/09/17 04:32:25;;;;;;;5.70;3.30;;;16.60;1.00;;;;;;5045535;28;20471;-84
2023/09/17 04:34:52;;;;;;;3.40;3.10;;;16.60;1.00;;;;;;5045694;28;20403;-83
2023/09/17 04:37:19;;;;;;;4.00;3.60;;;16.60;1.00;;;;;;5047612;28;20454;-83
2023/09/17 04:39:46;;;;;;;4.70;3.30;;;16.50;1.00;;;;;;5045544;28;20383;-83
2023/09/17 04:42:12;;;;;;;3.58;3.28;;;16.60;1.00;;;;;;5035818;28;20467;-84
2023/09/17 04:44:38;;;;;;;3.65;3.35;;;16.60;1.00;;;;;;5033441;28;20424;-83
2023/09/17 04:47:03;;;;;;;4.40;3.42;;;16.60;1.00;;;;;;5041223;28;20402;-83
2023/09/17 04:49:31;;;;;;;4.00;3.70;;;16.70;1.00;;;;;;5045561;28;20414;-84
2023/09/17 04:51:57;;;;;;;4.70;3.50;;;16.70;1.00;;;;;;5046086;28;20383;-83
2023/09/17 04:54:23;;;;;;;3.40;3.10;;;16.70;1.00;;;;;;5043530;28;21331;-83
2023/09/17 04:56:49;;;;;;;4.57;3.13;;;16.70;1.00;;;;;;5033437;28;20400;-84
2023/09/17 04:59:15;;;;;;;4.63;2.97;;;16.70;1.00;;;;;;5045831;28;20489;-83
2023/09/17 05:01:41;;;;;;;3.70;3.40;;;16.70;1.00;;;;;;5046042;28;20403;-82
2023/09/17 05:04:07;;;;;;;3.50;3.20;;;16.70;1.00;;;;;;5052950;28;20418;-83
2023/09/17 05:06:32;;;;;;;4.70;3.13;;;16.70;1.00;;;;;;5052112;28;20420;-83
2023/09/17 05:08:58;;;;;;;3.30;2.90;;;16.40;1.00;;;;;;5050098;28;20401;-83
2023/09/17 05:11:23;;;;;;;3.92;3.30;;;16.70;1.00;;;;;;5051219;28;20438;-83
2023/09/17 05:13:49;;;;;;;3.80;3.17;;;16.60;1.00;;;;;;5051112;28;20391;-83
2023/09/17 05:16:15;;;;;;;3.87;3.00;;;16.70;1.00;;;;;;5032389;28;20401;-83
2023/09/17 05:18:40;;;;;;;3.83;3.33;;;16.70;1.00;;;;;;5048633;28;20409;-82
2023/09/17 05:21:06;;;;;;;4.20;3.40;;;16.70;1.00;;;;;;5045408;28;20410;-83
2023/09/17 05:23:31;;;;;;;5.23;3.40;;;16.70;1.00;;;;;;5053431;28;20399;-83
2023/09/17 05:25:57;;;;;;;5.50;3.40;;;16.70;1.00;;;;;;5054851;28;20429;-82
2023/09/17 05:28:23;;;;;;;5.53;3.38;;;16.60;1.00;;;;;;5048287;28;20424;-83
2023/09/17 05:30:49;;;;;;;5.10;3.30;;;16.60;1.00;;;;;;5049690;28;20438;-83
2023/09/17 05:33:15;;;;;;;4.82;4.00;;;16.60;1.00;;;;;;5057095;28;20462;-82
2023/09/17 05:35:40;;;;;;;4.47;2.83;;;16.60;1.00;;;;;;5050393;28;20418;-83
2023/09/17 05:38:06;;;;;;;4.20;3.27;;;16.60;1.00;;;;;;5058931;28;20429;-82
2023/09/17 05:40:31;;;;;;;3.85;3.30;;;16.60;1.00;;;;;;5056160;28;20444;-82
2023/09/17 05:42:57;;;;;;;5.07;3.50;;;16.70;1.00;;;;;;5048536;28;20392;-82
2023/09/17 05:45:23;;;;;;;4.90;3.00;;;16.70;1.00;;;;;;5046004;28;20463;-82
2023/09/17 05:47:49;;;;;;;6.40;3.33;;;16.70;1.00;;;;;;5046304;28;20403;-83
2023/09/17 05:50:14;;;;;;;4.20;2.80;;;16.70;1.00;;;;;;5047483;28;20472;-81
2023/09/17 05:52:40;;;;;;;5.57;3.60;;;16.70;1.00;;;;;;5036734;28;20410;-84
2023/09/17 05:55:08;;;;;;;4.90;3.60;;;16.70;1.00;;;;;;5044328;28;20406;-82
2023/09/17 05:57:34;;;;;;;5.57;3.40;;;16.70;1.00;;;;;;5048058;28;20403;-82
2023/09/17 06:00:03;;;;;;;5.68;3.20;;;17.60;1.00;;;;;;5048095;28;20421;-82
2023/09/17 06:02:29;;;;;;;4.43;3.28;;;16.90;1.00;;;;;;5041104;28;20412;-82
2023/09/17 06:04:55;;;;;;;4.40;3.40;;;16.90;1.00;;;;;;5037915;28;20409;-82
2023/09/17 06:07:20;;;;;;;3.60;3.20;;;16.90;1.00;;;;;;5036771;28;20434;-82
2023/09/17 06:09:46;;;;;;;4.50;2.80;;;17.00;1.00;;;;;;5049079;28;20429;-83
2023/09/17 06:12:12;;;;;;;4.67;2.80;;;17.00;1.00;;;;;;5044539;28;20415;-82
2023/09/17 06:14:38;;;;;;;6.35;2.97;;;16.10;1.00;;;;;;5041333;28;20387;-82
2023/09/17 06:17:04;;;;;;;3.90;3.10;;;17.20;1.00;;;;;;5048583;28;20434;-83
2023/09/17 06:19:30;;;;;;;5.30;2.83;;;17.20;1.00;;;;;;5048558;28;20391;-83
2023/09/17 06:21:55;;;;;;;4.22;3.10;;;17.20;1.00;;;;;;5048432;28;20459;-82
2023/09/17 06:24:21;;;;;;;5.20;3.22;;;17.30;1.00;;;;;;5047210;28;20441;-82
2023/09/17 06:26:47;;;;;;;6.80;2.80;;;17.30;1.00;;;;;;5048552;28;20462;-82
2023/09/17 06:29:12;;;;;;;5.57;2.90;;;17.40;1.00;;;;;;5043920;28;20882;-82
2023/09/17 06:31:39;;;;;;;5.07;2.80;;;17.40;1.00;;;;;;5047781;28;20426;-83
2023/09/17 06:34:05;;;;;;;3.92;2.70;;;17.40;1.00;;;;;;5044117;28;20742;-83
2023/09/17 06:36:31;;;;;;;3.15;2.85;;;17.50;1.00;;;;;;5032589;28;20412;-84
2023/09/17 06:38:56;;;;;;;4.33;2.87;;;17.70;1.00;;;;;;5038367;28;20403;-85
2023/09/17 06:41:22;;;;;;;4.33;2.80;;;17.70;1.00;;;;;;5054621;28;20407;-83
2023/09/17 06:43:47;;;;;;;3.80;2.63;;;17.80;1.00;;;;;;5049122;28;20930;-84
2023/09/17 06:46:13;;;;;;;4.87;3.40;;;17.70;1.00;;;;;;5039824;28;20416;-86
2023/09/17 06:48:39;;;;;;;6.30;3.35;;;17.70;1.00;;;;;;5050780;28;20458;-84
2023/09/17 06:51:05;;;;;;;5.70;3.05;;;17.70;1.00;;;;;;5052852;28;20401;-83
2023/09/17 06:53:31;;;;;;;4.50;2.92;;;17.50;1.00;;;;;;5051120;28;20387;-84
2023/09/17 06:55:58;;;;;;;4.30;3.17;;;17.00;1.00;;;;;;5044553;28;20400;-84
2023/09/17 06:58:24;;;;;;;3.63;3.10;;;17.20;1.00;;;;;;5035160;28;20552;-85
2023/09/17 07:00:49;;;;;;;4.37;3.30;;;17.80;1.00;;;;;;5047070;28;20504;-85
2023/09/17 07:03:15;;;;;;;4.05;3.20;;;17.90;1.00;;;;;;5053835;28;20378;-85
2023/09/17 07:05:40;;;;;;;4.43;2.90;;;17.90;1.00;;;;;;5058812;28;20383;-82
2023/09/17 07:08:06;;;;;;;3.60;3.10;;;18.00;1.00;;;;;;5045202;28;20423;-84
2023/09/17 07:10:32;;;;;;;5.17;3.40;;;18.10;1.00;;;;;;5045962;28;20806;-82
2023/09/17 07:12:58;;;;;;;5.33;3.40;;;18.20;1.00;;;;;;5039073;28;20394;-84
2023/09/17 07:15:25;;;;;;;4.60;2.90;;;17.90;1.00;;;;;;5038036;28;20464;-83
2023/09/17 07:17:51;;;;;;;6.00;3.05;;;18.40;1.00;;;;;;5049183;23;20440;-82
2023/09/17 07:20:19;;;;;;;4.60;3.13;;;18.40;1.00;;;;;;5019172;28;20464;-81
2023/09/17 07:22:45;;;;;;;6.13;2.93;;;18.60;1.00;;;;;;5010926;28;20412;-81
2023/09/17 07:25:11;;;;;;;4.60;3.20;;;18.70;1.00;;;;;;5012780;28;20408;-82
2023/09/17 07:27:36;;;;;;;4.00;2.92;;;18.80;1.00;;;;;;5012687;28;20415;-82
2023/09/17 07:30:03;;;;;;;3.90;2.60;;;19.00;1.00;;;;;;5010105;28;20418;-80
2023/09/17 07:32:29;;;;;;;5.55;3.30;;;19.10;1.00;;;;;;5026185;28;20920;-81
2023/09/17 07:34:55;;;;;;;6.53;3.15;;;19.30;1.00;;;;;;5013566;28;20385;-81
2023/09/17 07:37:21;;;;;;;4.82;2.90;;;20.00;1.00;;;;;;5011034;28;20780;-81
2023/09/17 07:39:49;;;;;;;4.93;3.25;;;19.70;1.00;;;;;;5012717;28;20381;-81
2023/09/17 07:42:15;;;;;;;3.80;2.70;;;19.70;1.00;;;;;;5017291;28;20452;-81
2023/09/17 07:44:40;;;;;;;4.35;2.78;;;19.70;1.00;;;;;;5012613;28;20435;-82
2023/09/17 07:47:08;;;;;;;6.60;2.73;;;19.80;1.00;;;;;;5011438;28;20440;-80
2023/09/17 07:49:35;;;;;;;4.75;2.72;;;19.90;1.00;;;;;;5011494;28;20397;-82
2023/09/17 07:52:00;;;;;;;4.72;3.00;;;19.90;1.00;;;;;;5007445;28;20831;-83
2023/09/17 07:54:26;;;;;;;3.77;2.70;;;20.10;1.00;;;;;;5007562;28;20396;-83
2023/09/17 07:56:51;;;;;;;6.33;3.13;;;20.30;1.00;;;;;;5007336;28;20447;-83
2023/09/17 07:59:17;;;;;;;5.60;2.77;;;20.40;1.00;;;;;;5011874;28;20404;-82
2023/09/17 08:01:44;;;;;;;5.57;2.80;;;20.50;1.00;;;;;;5011158;28;20412;-82
2023/09/17 08:04:10;;;;;;;4.60;2.88;;;20.60;1.00;;;;;;5011804;28;20408;-82
2023/09/17 08:06:35;;;;;;;5.82;2.83;;;20.70;1.00;;;;;;5009289;28;20785;-81
2023/09/17 08:09:01;;;;;;;5.43;3.03;;;20.70;1.00;;;;;;5012574;28;20447;-81
2023/09/17 08:11:29;;;;;;;6.57;3.90;;;20.80;1.00;;;;;;5004063;28;20426;-83
2023/09/17 08:13:55;;;;;;;4.32;2.78;;;20.90;1.00;;;;;;5012324;28;20900;-83
2023/09/17 08:16:21;;;;;;;4.75;2.80;;;21.00;1.00;;;;;;5014370;28;20491;-83
2023/09/17 08:18:46;;;;;;;6.13;2.70;;;21.10;1.00;;;;;;5013207;28;20400;-82
2023/09/17 08:21:12;;;;;;;5.33;3.10;;;21.30;1.00;;;;;;5022150;28;20414;-83
2023/09/17 08:23:37;;;;;;;4.47;2.45;;;21.40;1.00;;;;;;5012250;28;20392;-82
2023/09/17 08:26:05;;;;;;;3.30;2.70;;;21.50;1.00;;;;;;5014407;28;20450;-83
2023/09/17 08:28:30;;;;;;;5.75;2.60;;;22.30;1.00;;;;;;5006250;28;20515;-83
2023/09/17 08:30:56;;;;;;;5.22;2.78;;;21.70;1.00;;;;;;4998530;28;20415;-81
2023/09/17 08:33:21;;;;;;;5.57;2.50;;;21.80;1.00;;;;;;5005820;28;20480;-82
2023/09/17 08:35:47;;;;;;;3.60;2.42;;;22.00;1.00;;;;;;5010924;28;20938;-82
2023/09/17 08:38:12;;;;;;;2.90;2.37;;;21.00;1.00;;;;;;5012722;28;20385;-82
2023/09/17 08:40:39;;;;;;;3.33;2.20;;;22.20;1.00;;;;;;5006477;28;20507;-81
2023/09/17 08:43:05;;;;;;;5.60;2.50;;;22.30;1.00;;;;;;5003123;28;20532;-82
2023/09/17 08:45:31;;;;;;;5.13;2.23;;;23.30;1.00;;;;;;5011686;28;20396;-82
2023/09/17 08:47:58;;;;;;;5.10;2.50;;;22.40;1.00;;;;;;5004849;28;20386;-82
2023/09/17 08:50:26;;;;;;;4.72;2.70;;;22.50;1.00;;;;;;5009157;28;20413;-83
2023/09/17 08:53:00;;;;;;;5.55;2.50;;;22.60;1.00;;;;;;5006491;28;20495;-81
2023/09/17 08:55:45;;;;;;;4.68;2.60;;;22.60;1.00;;;;;;5014143;28;20396;-83
2023/09/17 08:58:24;;;;;;;4.40;2.42;;;22.70;1.00;;;;;;5006544;28;20472;-82
2023/09/17 09:00:52;;;;;;;5.75;2.47;;;21.60;1.00;;;;;;5012364;28;20807;-82
2023/09/17 09:03:22;;;;;;;4.00;2.40;;;22.80;1.00;;;;;;5016933;28;20396;-83
2023/09/17 09:05:50;;;;;;;3.03;2.70;;;23.00;1.00;;;;;;5009667;28;20455;-83
2023/09/17 09:08:17;;;;;;;2.95;2.15;;;24.60;1.00;;;;;;5004928;28;20404;-82
2023/09/17 09:10:43;;;;;;;5.13;2.50;;;23.00;1.00;;;;;;5009910;28;20504;-83
2023/09/17 09:13:09;;;;;;;7.13;2.80;;;23.10;1.00;;;;;;5003923;28;20491;-82
2023/09/17 09:15:36;;;;;;;4.18;2.10;;;22.60;1.00;;;;;;5012006;28;20478;-83
2023/09/17 09:18:02;;;;;;;4.93;2.40;;;23.30;1.00;;;;;;5014033;28;20402;-82
2023/09/17 09:20:28;;;;;;;4.65;2.35;;;23.40;1.00;;;;;;5010014;28;20430;-82
2023/09/17 09:22:54;;;;;;;4.55;2.20;;;23.50;1.00;;;;;;5005676;28;20421;-82
2023/09/17 09:25:20;;;;;;;4.80;2.40;;;23.60;1.00;;;;;;5003467;28;20406;-82
2023/09/17 09:27:45;;;;;;;4.10;2.03;;;23.80;1.00;;;;;;5010893;28;20608;-83
2023/09/17 09:30:14;;;;;;;3.10;2.00;;;25.30;1.00;;;;;;5024294;28;20434;-83
2023/09/17 09:32:41;;;;;;;3.70;2.25;;;24.00;1.00;;;;;;5018779;28;20461;-83
2023/09/17 09:35:08;;;;;;;5.70;2.50;;;24.40;1.00;;;;;;5022088;28;21009;-83
2023/09/17 09:37:34;;;;;;;3.47;2.20;;;24.40;1.00;;;;;;5022069;28;20463;-83
2023/09/17 09:40:01;;;;;;;5.90;2.40;;;24.60;1.00;;;;;;5006578;28;20827;-84
2023/09/17 09:42:26;;;;;;;3.42;2.47;;;24.80;1.00;;;;;;5016988;28;20404;-82
2023/09/17 09:44:53;;;;;;;4.68;2.50;;;25.10;1.00;;;;;;5027307;28;20464;-83
2023/09/17 09:47:25;;;;;;;6.10;3.00;;;24.10;1.00;;;;;;5029425;28;20440;-81
2023/09/17 09:49:51;;;;;;;4.55;2.78;;;25.10;1.00;;;;;;5019427;28;20458;-83
2023/09/17 09:52:17;;;;;;;6.53;2.55;;;25.20;1.00;;;;;;5014073;28;20417;-82
2023/09/17 09:54:44;;;;;;;3.58;2.65;;;25.30;1.00;;;;;;5004212;28;20404;-83
2023/09/17 09:57:15;;;;;;;5.40;2.90;;;25.40;1.00;;;;;;5003847;28;20733;-83
2023/09/17 09:59:48;;;;;;;3.80;2.60;;;24.60;1.00;;;;;;5012320;28;20401;-82
2023/09/17 10:02:16;;;;;;;4.25;2.95;;;25.40;1.00;;;;;;5020822;28;20395;-83
2023/09/17 10:04:44;;;;;;;3.20;2.20;;;25.40;1.00;;;;;;5025938;28;20390;-83
2023/09/17 10:07:10;;;;;;;3.20;2.70;;;25.50;1.00;;;;;;5022989;28;20396;-82
2023/09/17 10:09:36;;;;;;;4.53;2.35;;;25.50;1.00;;;;;;5011149;28;20400;-83
2023/09/17 10:12:03;;;;;;;3.40;2.35;;;25.60;1.00;;;;;;5005848;28;20808;-84
2023/09/17 10:14:32;;;;;;;3.85;2.47;;;25.60;1.00;;;;;;5022028;28;20401;-82
2023/09/17 10:17:01;;;;;;;3.92;2.45;;;25.70;1.00;;;;;;5003269;28;20889;-82
2023/09/17 10:19:29;;;;;;;3.38;2.50;;;26.00;1.00;;;;;;5004902;28;20401;-82
2023/09/17 10:21:55;;;;;;;3.35;2.17;;;26.00;1.00;;;;;;5005335;28;20473;-82
2023/09/17 10:24:22;;;;;;;3.25;2.20;;;26.00;1.00;;;;;;5005130;28;20833;-82
2023/09/17 10:26:49;;;;;;;3.22;2.05;;;26.00;1.00;;;;;;5011909;28;20397;-82
2023/09/17 10:29:15;;;;;;;3.17;2.03;;;26.10;1.00;;;;;;5008756;28;20884;-81
2023/09/17 10:31:42;;;;;;;5.00;2.50;;;26.20;1.00;;;;;;5000797;28;21070;-83
2023/09/17 10:34:15;;;;;;;2.40;2.20;;;26.20;1.00;;;;;;5004038;28;20404;-83
2023/09/17 10:36:42;;;;;;;4.57;2.50;;;26.30;1.00;;;;;;4999756;28;20446;-83
2023/09/17 10:39:10;;;;;;;4.23;2.30;;;26.40;1.00;;;;;;5006795;28;20388;-82
2023/09/17 10:41:39;;;;;;;3.88;2.42;;;26.50;1.00;;;;;;5003126;28;20404;-82
2023/09/17 10:44:07;;;;;;;4.53;2.55;;;26.70;1.00;;;;;;5005486;28;20468;-83
2023/09/17 10:46:36;;;;;;;3.90;2.40;;;26.80;1.00;;;;;;5006465;28;20413;-83
2023/09/17 10:49:02;;;;;;;4.00;2.60;;;26.60;1.00;;;;;;5004121;28;20413;-82
2023/09/17 10:51:28;;;;;;;3.55;2.40;;;26.80;1.00;;;;;;5014231;28;20400;-82
2023/09/17 10:53:54;;;;;;;2.60;2.40;;;26.80;1.00;;;;;;5010312;28;20405;-83
2023/09/17 10:56:20;;;;;;;4.15;2.40;;;26.90;1.00;;;;;;5006372;28;20460;-81
2023/09/17 10:58:49;;;;;;;3.20;2.40;;;27.00;1.00;;;;;;5014503;28;20405;-81
2023/09/17 11:01:22;;;;;;;5.03;2.58;;;27.20;1.00;;;;;;5012379;28;20916;-83
2023/09/17 11:03:52;;;;;;;6.20;2.50;;;27.20;1.00;;;;;;5004527;28;20438;-82
2023/09/17 11:06:23;;;;;;;2.92;2.10;;;27.20;1.00;;;;;;5013918;28;20436;-83
2023/09/17 11:08:56;;;;;;;3.55;2.35;;;27.20;1.00;;;;;;5000855;28;20451;-82
2023/09/17 11:11:25;;;;;;;3.47;2.47;;;27.50;1.00;;;;;;5008610;28;20524;-83
2023/09/17 11:13:53;;;;;;;3.75;2.40;;;27.60;1.00;;;;;;5005231;28;20420;-82
2023/09/17 11:16:20;;;;;;;4.07;2.17;;;27.60;1.00;;;;;;5012648;28;20385;-82
2023/09/17 11:19:14;;;;;;;3.28;2.55;;;27.80;1.00;;;;;;5000722;28;20421;-83
2023/09/17 11:21:41;;;;;;;4.27;2.67;;;28.20;1.00;;;;;;5015413;28;20401;-82
2023/09/17 11:24:12;;;;;;;7.90;2.15;;;28.20;1.00;;;;;;5012554;28;20393;-82
2023/09/17 11:26:40;;;;;;;4.20;2.50;;;28.40;1.00;;;;;;5014832;28;20473;-83
2023/09/17 11:29:06;;;;;;;2.70;1.90;;;28.80;1.00;;;;;;5012150;28;20388;-83
2023/09/17 11:31:35;;;;;;;4.28;2.17;;;29.30;1.00;;;;;;5005455;28;20420;-83
2023/09/17 11:34:10;;;;;;;6.15;2.20;;;29.80;1.00;;;;;;5012877;28;20480;-82
2023/09/17 11:36:36;;;;;;;4.10;2.50;;;30.60;1.00;;;;;;5010351;28;20458;-82
2023/09/17 11:39:08;;;;;;;5.37;2.40;;;30.00;1.00;;;;;;5007267;28;20404;-82
2023/09/17 11:41:36;;;;;;;3.05;2.50;;;30.70;1.00;;;;;;5026835;28;20395;-82
2023/09/17 11:44:03;;;;;;;3.67;1.92;;;30.50;1.00;;;;;;5019970;28;20425;-81
2023/09/17 11:46:29;;;;;;;4.30;2.15;;;30.50;1.00;;;;;;5023099;28;20411;-82
2023/09/17 11:48:55;;;;;;;4.70;2.50;;;30.90;1.00;;;;;;5025085;28;20428;-82
2023/09/17 11:51:26;;;;;;;3.03;2.20;;;31.20;1.00;;;;;;5019811;28;20418;-83
2023/09/17 11:53:57;;;;;;;3.33;2.20;;;31.10;1.00;;;;;;5005009;28;20410;-82
2023/09/17 11:56:25;;;;;;;4.30;2.23;;;30.80;1.00;;;;;;5006468;28;20391;-83
2023/09/17 11:59:15;;;;;;;3.05;2.10;;;30.70;1.00;;;;;;5020284;28;20368;-83
2023/09/17 12:01:55;;;;;;;5.10;2.50;;;30.10;1.00;;;;;;5027617;28;20520;-82
2023/09/17 12:04:25;;;;;;;3.50;2.50;;;30.60;1.00;;;;;;5024700;28;20406;-81
2023/09/17 12:06:52;;;;;;;4.90;2.38;;;30.40;1.00;;;;;;5025185;28;20476;-81
2023/09/17 12:09:41;;;;;;;2.83;2.20;;;29.70;1.00;;;;;;5030895;28;20402;-81
2023/09/17 12:12:07;;;;;;;3.53;2.10;;;30.30;1.00;;;;;;5035505;28;20407;-80
2023/09/17 12:14:33;;;;;;;3.45;2.10;;;30.10;1.00;;;;;;5028901;28;20456;-79
2023/09/17 12:17:01;;;;;;;3.20;2.35;;;29.70;1.00;;;;;;5024282;28;20564;-80
2023/09/17 12:19:28;;;;;;;3.80;2.42;;;29.40;1.00;;;;;;5029323;28;20392;-80
2023/09/17 12:21:55;;;;;;;2.90;2.17;;;29.60;1.00;;;;;;5023928;28;20383;-80
2023/09/17 12:24:35;;;;;;;2.28;2.08;;;30.00;1.00;;;;;;5034394;28;20417;-80
2023/09/17 12:29:37;;;;;;;3.17;2.50;;;30.00;1.00;;;;;;5029725;28;20403;-82
2023/09/17 12:32:06;;;;;;;3.42;2.42;;;30.00;1.00;;;;;;5012480;28;20520;-82
2023/09/17 12:34:36;;;;;;;3.05;2.28;;;29.90;1.00;;;;;;5007529;28;20774;-82
2023/09/17 12:37:02;;;;;;;4.47;2.45;;;29.80;1.00;;;;;;5009502;28;20762;-81
2023/09/17 12:39:28;;;;;;;3.35;2.50;;;29.80;1.00;;;;;;5000854;28;20769;-82
2023/09/17 12:41:54;;;;;;;4.38;2.33;;;30.10;1.00;;;;;;5005271;28;20389;-82
2023/09/17 12:44:19;;;;;;;3.80;2.40;;;30.50;1.00;;;;;;4999185;28;20395;-82
2023/09/17 12:46:45;;;;;;;5.97;3.00;;;30.80;1.00;;;;;;5002605;28;20420;-82
2023/09/17 12:49:11;;;;;;;3.15;2.10;;;31.00;1.00;;;;;;5007297;28;20744;-82
2023/09/17 12:51:37;;;;;;;3.37;2.50;;;30.30;1.00;;;;;;5013311;28;20412;-81
2023/09/17 12:54:06;;;;;;;4.30;2.73;;;30.80;1.00;;;;;;5017038;28;20392;-81
2023/09/17 12:56:32;;;;;;;3.70;2.30;;;30.40;1.00;;;;;;5014539;28;20425;-81
2023/09/17 12:58:58;;;;;;;5.05;2.50;;;30.40;1.00;;;;;;5008918;28;20928;-82